sensor_id;sensor_type;location;lat;lon;timestamp;P1;durP1;ratioP1;P2;durP2;ratioP2
15833;SDS011;8017;50.812;4.934;2022-11-15T00:02:19;29.77;;;22.73;;
15833;SDS011;8017;50.812;4.934;2022-11-15T00:05:21;27.80;;;21.80;;
15833;SDS011;8017;50.812;4.934;2022-11-15T00:08:23;27.07;;;22.40;;
15833;SDS011;8017;50.812;4.934;2022-11-15T00:11:25;25.73;;;21.10;;
15833;SDS011;8017;50.812;4.934;2022-11-15T00:14:28;26.37;;;22.23;;
15833;SDS011;8017;50.812;4.934;2022-11-15T00:17:30;26.87;;;21.80;;
15833;SDS011;8017;50.812;4.934;2022-11-15T00:20:33;25.93;;;21.13;;
15833;SDS011;8017;50.812;4.934;2022-11-15T00:23:35;24.40;;;21.27;;
15833;SDS011;8017;50.812;4.934;2022-11-15T00:26:37;24.67;;;20.73;;
15833;SDS011;8017;50.812;4.934;2022-11-15T00:29:40;23.77;;;20.30;;
15833;SDS011;8017;50.812;4.934;2022-11-15T00:32:43;22.67;;;20.27;;
15833;SDS011;8017;50.812;4.934;2022-11-15T00:35:45;24.73;;;20.17;;
15833;SDS011;8017;50.812;4.934;2022-11-15T00:38:46;28.50;;;21.50;;
15833;SDS011;8017;50.812;4.934;2022-11-15T00:41:48;24.13;;;20.83;;
15833;SDS011;8017;50.812;4.934;2022-11-15T00:44:51;25.63;;;20.77;;
15833;SDS011;8017;50.812;4.934;2022-11-15T00:47:53;24.47;;;21.57;;
15833;SDS011;8017;50.812;4.934;2022-11-15T00:50:55;25.20;;;22.13;;
15833;SDS011;8017;50.812;4.934;2022-11-15T00:53:57;26.93;;;21.37;;
15833;SDS011;8017;50.812;4.934;2022-11-15T00:56:59;28.10;;;22.60;;
15833;SDS011;8017;50.812;4.934;2022-11-15T01:00:03;24.60;;;21.97;;
15833;SDS011;8017;50.812;4.934;2022-11-15T01:03:06;27.53;;;20.97;;
15833;SDS011;8017;50.812;4.934;2022-11-15T01:06:08;26.33;;;22.80;;
15833;SDS011;8017;50.812;4.934;2022-11-15T01:09:10;29.37;;;21.97;;
15833;SDS011;8017;50.812;4.934;2022-11-15T01:12:12;24.73;;;21.70;;
15833;SDS011;8017;50.812;4.934;2022-11-15T01:15:15;24.33;;;20.27;;
15833;SDS011;8017;50.812;4.934;2022-11-15T01:18:17;28.40;;;21.97;;
15833;SDS011;8017;50.812;4.934;2022-11-15T01:21:19;25.43;;;20.07;;
15833;SDS011;8017;50.812;4.934;2022-11-15T01:24:21;23.87;;;20.70;;
15833;SDS011;8017;50.812;4.934;2022-11-15T01:27:23;24.80;;;20.87;;
15833;SDS011;8017;50.812;4.934;2022-11-15T01:30:26;25.93;;;21.30;;
15833;SDS011;8017;50.812;4.934;2022-11-15T01:33:28;29.37;;;21.50;;
15833;SDS011;8017;50.812;4.934;2022-11-15T01:36:31;28.63;;;22.53;;
15833;SDS011;8017;50.812;4.934;2022-11-15T01:39:33;28.47;;;22.23;;
15833;SDS011;8017;50.812;4.934;2022-11-15T01:42:34;32.80;;;25.03;;
15833;SDS011;8017;50.812;4.934;2022-11-15T01:45:38;33.73;;;26.53;;
15833;SDS011;8017;50.812;4.934;2022-11-15T01:48:39;33.73;;;26.30;;
15833;SDS011;8017;50.812;4.934;2022-11-15T01:51:41;39.17;;;30.40;;
15833;SDS011;8017;50.812;4.934;2022-11-15T01:54:43;44.27;;;35.23;;
15833;SDS011;8017;50.812;4.934;2022-11-15T01:57:46;43.13;;;34.37;;
15833;SDS011;8017;50.812;4.934;2022-11-15T02:00:53;45.70;;;36.10;;
15833;SDS011;8017;50.812;4.934;2022-11-15T02:03:56;44.93;;;36.60;;
15833;SDS011;8017;50.812;4.934;2022-11-15T02:07:01;45.40;;;36.30;;
15833;SDS011;8017;50.812;4.934;2022-11-15T02:10:06;49.37;;;38.63;;
15833;SDS011;8017;50.812;4.934;2022-11-15T02:13:10;41.27;;;35.27;;
15833;SDS011;8017;50.812;4.934;2022-11-15T02:16:15;47.77;;;36.60;;
15833;SDS011;8017;50.812;4.934;2022-11-15T02:19:29;45.13;;;36.90;;
15833;SDS011;8017;50.812;4.934;2022-11-15T02:22:55;45.63;;;36.27;;
15833;SDS011;8017;50.812;4.934;2022-11-15T02:26:19;40.57;;;34.57;;
15833;SDS011;8017;50.812;4.934;2022-11-15T02:29:55;47.20;;;36.03;;
15833;SDS011;8017;50.812;4.934;2022-11-15T02:33:12;50.30;;;36.93;;
15833;SDS011;8017;50.812;4.934;2022-11-15T02:36:26;43.63;;;33.47;;
15833;SDS011;8017;50.812;4.934;2022-11-15T02:39:35;42.13;;;32.87;;
15833;SDS011;8017;50.812;4.934;2022-11-15T02:42:48;46.53;;;35.20;;
15833;SDS011;8017;50.812;4.934;2022-11-15T02:46:13;46.17;;;33.67;;
15833;SDS011;8017;50.812;4.934;2022-11-15T02:49:20;37.70;;;30.67;;
15833;SDS011;8017;50.812;4.934;2022-11-15T02:52:24;39.53;;;30.97;;
15833;SDS011;8017;50.812;4.934;2022-11-15T02:55:27;38.83;;;29.83;;
15833;SDS011;8017;50.812;4.934;2022-11-15T02:58:48;35.00;;;28.77;;
15833;SDS011;8017;50.812;4.934;2022-11-15T03:02:15;30.63;;;24.67;;
15833;SDS011;8017;50.812;4.934;2022-11-15T03:05:28;29.47;;;24.43;;
15833;SDS011;8017;50.812;4.934;2022-11-15T03:08:37;29.37;;;24.13;;
15833;SDS011;8017;50.812;4.934;2022-11-15T03:11:48;32.47;;;24.20;;
15833;SDS011;8017;50.812;4.934;2022-11-15T03:14:55;33.23;;;25.30;;
15833;SDS011;8017;50.812;4.934;2022-11-15T03:18:02;32.53;;;24.90;;
15833;SDS011;8017;50.812;4.934;2022-11-15T03:21:12;29.60;;;23.47;;
15833;SDS011;8017;50.812;4.934;2022-11-15T03:24:16;32.87;;;25.13;;
15833;SDS011;8017;50.812;4.934;2022-11-15T03:27:21;32.43;;;25.60;;
15833;SDS011;8017;50.812;4.934;2022-11-15T03:30:26;27.90;;;23.00;;
15833;SDS011;8017;50.812;4.934;2022-11-15T03:33:29;25.57;;;22.80;;
15833;SDS011;8017;50.812;4.934;2022-11-15T03:36:33;27.93;;;21.83;;
15833;SDS011;8017;50.812;4.934;2022-11-15T03:39:36;25.90;;;22.00;;
15833;SDS011;8017;50.812;4.934;2022-11-15T03:42:38;27.57;;;20.53;;
15833;SDS011;8017;50.812;4.934;2022-11-15T03:45:45;27.93;;;22.73;;
15833;SDS011;8017;50.812;4.934;2022-11-15T03:48:52;36.77;;;29.60;;
15833;SDS011;8017;50.812;4.934;2022-11-15T03:51:58;31.07;;;25.70;;
15833;SDS011;8017;50.812;4.934;2022-11-15T03:55:01;33.03;;;27.07;;
15833;SDS011;8017;50.812;4.934;2022-11-15T03:58:05;31.27;;;24.83;;
15833;SDS011;8017;50.812;4.934;2022-11-15T04:01:07;31.50;;;25.77;;
15833;SDS011;8017;50.812;4.934;2022-11-15T04:04:09;29.83;;;24.93;;
15833;SDS011;8017;50.812;4.934;2022-11-15T04:07:12;26.07;;;22.43;;
15833;SDS011;8017;50.812;4.934;2022-11-15T04:10:14;26.23;;;21.60;;
15833;SDS011;8017;50.812;4.934;2022-11-15T04:13:16;14.30;;;12.10;;
15833;SDS011;8017;50.812;4.934;2022-11-15T04:16:18;13.63;;;10.73;;
15833;SDS011;8017;50.812;4.934;2022-11-15T04:19:20;12.77;;;9.27;;
15833;SDS011;8017;50.812;4.934;2022-11-15T04:22:41;9.07;;;8.17;;
15833;SDS011;8017;50.812;4.934;2022-11-15T04:26:01;11.57;;;7.23;;
15833;SDS011;8017;50.812;4.934;2022-11-15T04:29:04;9.23;;;8.07;;
15833;SDS011;8017;50.812;4.934;2022-11-15T04:32:23;10.33;;;8.63;;
15833;SDS011;8017;50.812;4.934;2022-11-15T04:35:25;10.90;;;9.10;;
15833;SDS011;8017;50.812;4.934;2022-11-15T04:38:29;13.83;;;9.70;;
15833;SDS011;8017;50.812;4.934;2022-11-15T04:41:31;11.23;;;9.43;;
15833;SDS011;8017;50.812;4.934;2022-11-15T04:44:33;10.23;;;9.00;;
15833;SDS011;8017;50.812;4.934;2022-11-15T04:47:35;10.03;;;8.37;;
15833;SDS011;8017;50.812;4.934;2022-11-15T04:50:37;11.97;;;8.03;;
15833;SDS011;8017;50.812;4.934;2022-11-15T04:53:40;10.50;;;8.37;;
15833;SDS011;8017;50.812;4.934;2022-11-15T04:56:42;14.07;;;8.90;;
15833;SDS011;8017;50.812;4.934;2022-11-15T04:59:44;13.77;;;9.93;;
15833;SDS011;8017;50.812;4.934;2022-11-15T05:02:46;13.20;;;9.80;;
15833;SDS011;8017;50.812;4.934;2022-11-15T05:06:05;15.17;;;10.77;;
15833;SDS011;8017;50.812;4.934;2022-11-15T05:09:10;13.10;;;10.70;;
15833;SDS011;8017;50.812;4.934;2022-11-15T05:12:14;13.53;;;11.93;;
15833;SDS011;8017;50.812;4.934;2022-11-15T05:15:16;17.20;;;14.00;;
15833;SDS011;8017;50.812;4.934;2022-11-15T05:18:18;16.20;;;13.60;;
15833;SDS011;8017;50.812;4.934;2022-11-15T05:21:19;19.10;;;14.87;;
15833;SDS011;8017;50.812;4.934;2022-11-15T05:24:23;19.77;;;14.77;;
15833;SDS011;8017;50.812;4.934;2022-11-15T05:27:24;18.83;;;16.20;;
15833;SDS011;8017;50.812;4.934;2022-11-15T05:30:26;21.30;;;16.97;;
15833;SDS011;8017;50.812;4.934;2022-11-15T05:33:28;25.53;;;18.40;;
15833;SDS011;8017;50.812;4.934;2022-11-15T05:36:31;25.60;;;18.63;;
15833;SDS011;8017;50.812;4.934;2022-11-15T05:39:38;28.33;;;19.03;;
15833;SDS011;8017;50.812;4.934;2022-11-15T05:42:39;23.17;;;19.77;;
15833;SDS011;8017;50.812;4.934;2022-11-15T05:45:41;27.17;;;20.43;;
15833;SDS011;8017;50.812;4.934;2022-11-15T05:48:44;24.63;;;18.83;;
15833;SDS011;8017;50.812;4.934;2022-11-15T05:51:49;25.47;;;18.23;;
15833;SDS011;8017;50.812;4.934;2022-11-15T05:54:54;23.97;;;19.07;;
15833;SDS011;8017;50.812;4.934;2022-11-15T05:57:57;27.10;;;19.80;;
15833;SDS011;8017;50.812;4.934;2022-11-15T06:01:00;26.57;;;19.13;;
15833;SDS011;8017;50.812;4.934;2022-11-15T06:04:02;25.80;;;18.37;;
15833;SDS011;8017;50.812;4.934;2022-11-15T06:07:04;25.27;;;18.60;;
15833;SDS011;8017;50.812;4.934;2022-11-15T06:10:08;23.80;;;18.73;;
15833;SDS011;8017;50.812;4.934;2022-11-15T06:13:10;25.17;;;18.77;;
15833;SDS011;8017;50.812;4.934;2022-11-15T06:16:12;23.90;;;17.50;;
15833;SDS011;8017;50.812;4.934;2022-11-15T06:19:14;26.17;;;17.27;;
15833;SDS011;8017;50.812;4.934;2022-11-15T06:22:16;26.27;;;17.80;;
15833;SDS011;8017;50.812;4.934;2022-11-15T06:25:20;25.53;;;17.70;;
15833;SDS011;8017;50.812;4.934;2022-11-15T06:28:21;24.83;;;17.17;;
15833;SDS011;8017;50.812;4.934;2022-11-15T06:31:23;20.57;;;16.70;;
15833;SDS011;8017;50.812;4.934;2022-11-15T06:34:25;21.37;;;15.60;;
15833;SDS011;8017;50.812;4.934;2022-11-15T06:37:27;22.47;;;15.37;;
15833;SDS011;8017;50.812;4.934;2022-11-15T06:40:30;22.30;;;15.93;;
15833;SDS011;8017;50.812;4.934;2022-11-15T06:43:35;24.03;;;16.90;;
15833;SDS011;8017;50.812;4.934;2022-11-15T06:46:38;25.07;;;17.97;;
15833;SDS011;8017;50.812;4.934;2022-11-15T06:49:40;22.17;;;17.47;;
15833;SDS011;8017;50.812;4.934;2022-11-15T06:52:42;25.47;;;16.40;;
15833;SDS011;8017;50.812;4.934;2022-11-15T06:55:45;21.80;;;17.13;;
15833;SDS011;8017;50.812;4.934;2022-11-15T06:58:47;28.97;;;18.20;;
15833;SDS011;8017;50.812;4.934;2022-11-15T07:01:49;21.50;;;16.20;;
15833;SDS011;8017;50.812;4.934;2022-11-15T07:04:51;16.87;;;14.70;;
15833;SDS011;8017;50.812;4.934;2022-11-15T07:07:53;19.97;;;14.30;;
15833;SDS011;8017;50.812;4.934;2022-11-15T07:10:59;17.43;;;14.03;;
15833;SDS011;8017;50.812;4.934;2022-11-15T07:14:02;15.30;;;12.30;;
15833;SDS011;8017;50.812;4.934;2022-11-15T07:17:03;17.27;;;12.60;;
15833;SDS011;8017;50.812;4.934;2022-11-15T07:20:06;16.60;;;11.10;;
15833;SDS011;8017;50.812;4.934;2022-11-15T07:23:08;16.83;;;12.97;;
15833;SDS011;8017;50.812;4.934;2022-11-15T07:26:11;16.27;;;12.13;;
15833;SDS011;8017;50.812;4.934;2022-11-15T07:29:13;15.37;;;11.23;;
15833;SDS011;8017;50.812;4.934;2022-11-15T07:32:15;13.03;;;11.43;;
15833;SDS011;8017;50.812;4.934;2022-11-15T07:35:17;14.97;;;11.87;;
15833;SDS011;8017;50.812;4.934;2022-11-15T07:38:19;15.77;;;11.00;;
15833;SDS011;8017;50.812;4.934;2022-11-15T07:41:22;15.60;;;11.00;;
15833;SDS011;8017;50.812;4.934;2022-11-15T07:44:25;15.87;;;10.60;;
15833;SDS011;8017;50.812;4.934;2022-11-15T07:47:28;12.60;;;9.83;;
15833;SDS011;8017;50.812;4.934;2022-11-15T07:50:29;14.20;;;10.03;;
15833;SDS011;8017;50.812;4.934;2022-11-15T07:53:31;18.07;;;10.10;;
15833;SDS011;8017;50.812;4.934;2022-11-15T07:56:35;11.60;;;8.70;;
15833;SDS011;8017;50.812;4.934;2022-11-15T07:59:37;9.60;;;8.20;;
15833;SDS011;8017;50.812;4.934;2022-11-15T08:02:38;14.43;;;8.60;;
15833;SDS011;8017;50.812;4.934;2022-11-15T08:05:41;10.87;;;7.73;;
15833;SDS011;8017;50.812;4.934;2022-11-15T08:08:44;8.93;;;8.03;;
15833;SDS011;8017;50.812;4.934;2022-11-15T08:11:48;10.93;;;8.03;;
15833;SDS011;8017;50.812;4.934;2022-11-15T08:14:50;7.60;;;6.37;;
15833;SDS011;8017;50.812;4.934;2022-11-15T08:17:53;6.70;;;5.60;;
15833;SDS011;8017;50.812;4.934;2022-11-15T08:20:58;8.33;;;5.53;;
15833;SDS011;8017;50.812;4.934;2022-11-15T08:24:00;7.87;;;4.87;;
15833;SDS011;8017;50.812;4.934;2022-11-15T08:27:04;6.67;;;4.53;;
15833;SDS011;8017;50.812;4.934;2022-11-15T08:30:15;4.43;;;3.67;;
15833;SDS011;8017;50.812;4.934;2022-11-15T08:33:17;7.77;;;3.67;;
15833;SDS011;8017;50.812;4.934;2022-11-15T08:36:19;4.80;;;3.20;;
15833;SDS011;8017;50.812;4.934;2022-11-15T08:39:21;7.20;;;3.50;;
15833;SDS011;8017;50.812;4.934;2022-11-15T08:42:24;4.60;;;2.70;;
15833;SDS011;8017;50.812;4.934;2022-11-15T08:45:26;5.60;;;2.60;;
15833;SDS011;8017;50.812;4.934;2022-11-15T08:48:28;7.50;;;3.23;;
15833;SDS011;8017;50.812;4.934;2022-11-15T08:51:31;5.00;;;2.57;;
15833;SDS011;8017;50.812;4.934;2022-11-15T08:54:32;3.00;;;2.17;;
15833;SDS011;8017;50.812;4.934;2022-11-15T08:57:36;6.10;;;2.03;;
15833;SDS011;8017;50.812;4.934;2022-11-15T09:00:37;6.37;;;1.83;;
15833;SDS011;8017;50.812;4.934;2022-11-15T09:03:39;7.77;;;2.40;;
15833;SDS011;8017;50.812;4.934;2022-11-15T09:06:42;6.67;;;2.00;;
15833;SDS011;8017;50.812;4.934;2022-11-15T09:09:44;8.30;;;1.90;;
15833;SDS011;8017;50.812;4.934;2022-11-15T09:12:47;3.67;;;1.73;;
15833;SDS011;8017;50.812;4.934;2022-11-15T09:15:49;4.27;;;2.10;;
15833;SDS011;8017;50.812;4.934;2022-11-15T09:18:50;5.13;;;1.70;;
15833;SDS011;8017;50.812;4.934;2022-11-15T09:21:53;7.90;;;1.50;;
15833;SDS011;8017;50.812;4.934;2022-11-15T09:24:55;4.53;;;1.50;;
15833;SDS011;8017;50.812;4.934;2022-11-15T09:27:58;7.17;;;2.17;;
15833;SDS011;8017;50.812;4.934;2022-11-15T09:31:01;5.10;;;1.83;;
15833;SDS011;8017;50.812;4.934;2022-11-15T09:34:05;5.40;;;1.53;;
15833;SDS011;8017;50.812;4.934;2022-11-15T09:37:06;6.07;;;1.80;;
15833;SDS011;8017;50.812;4.934;2022-11-15T09:40:09;4.27;;;1.43;;
15833;SDS011;8017;50.812;4.934;2022-11-15T09:43:26;4.97;;;1.70;;
15833;SDS011;8017;50.812;4.934;2022-11-15T09:46:36;5.00;;;1.93;;
15833;SDS011;8017;50.812;4.934;2022-11-15T09:49:44;5.23;;;1.90;;
15833;SDS011;8017;50.812;4.934;2022-11-15T09:52:47;3.57;;;1.63;;
15833;SDS011;8017;50.812;4.934;2022-11-15T09:55:51;4.60;;;1.67;;
15833;SDS011;8017;50.812;4.934;2022-11-15T09:59:03;3.63;;;1.60;;
15833;SDS011;8017;50.812;4.934;2022-11-15T10:02:19;4.53;;;1.60;;
15833;SDS011;8017;50.812;4.934;2022-11-15T10:05:34;4.50;;;1.70;;
15833;SDS011;8017;50.812;4.934;2022-11-15T10:08:50;4.57;;;1.50;;
15833;SDS011;8017;50.812;4.934;2022-11-15T10:11:59;4.43;;;1.73;;
15833;SDS011;8017;50.812;4.934;2022-11-15T10:15:03;4.37;;;1.47;;
15833;SDS011;8017;50.812;4.934;2022-11-15T10:18:09;7.60;;;1.97;;
15833;SDS011;8017;50.812;4.934;2022-11-15T10:21:19;3.37;;;1.63;;
15833;SDS011;8017;50.812;4.934;2022-11-15T10:24:35;7.17;;;1.73;;
15833;SDS011;8017;50.812;4.934;2022-11-15T10:27:40;3.90;;;1.40;;
15833;SDS011;8017;50.812;4.934;2022-11-15T10:30:47;6.63;;;2.03;;
15833;SDS011;8017;50.812;4.934;2022-11-15T10:33:50;10.43;;;2.27;;
15833;SDS011;8017;50.812;4.934;2022-11-15T10:37:00;11.03;;;1.93;;
15833;SDS011;8017;50.812;4.934;2022-11-15T10:40:03;5.47;;;1.70;;
15833;SDS011;8017;50.812;4.934;2022-11-15T10:43:13;3.03;;;1.63;;
15833;SDS011;8017;50.812;4.934;2022-11-15T10:46:19;11.67;;;2.20;;
15833;SDS011;8017;50.812;4.934;2022-11-15T10:49:23;6.77;;;2.00;;
15833;SDS011;8017;50.812;4.934;2022-11-15T10:52:28;9.67;;;1.80;;
15833;SDS011;8017;50.812;4.934;2022-11-15T10:55:32;6.70;;;1.60;;
15833;SDS011;8017;50.812;4.934;2022-11-15T10:58:37;4.90;;;1.40;;
15833;SDS011;8017;50.812;4.934;2022-11-15T11:01:46;5.93;;;1.63;;
15833;SDS011;8017;50.812;4.934;2022-11-15T11:04:49;5.43;;;1.20;;
15833;SDS011;8017;50.812;4.934;2022-11-15T11:07:55;6.77;;;1.40;;
15833;SDS011;8017;50.812;4.934;2022-11-15T11:11:00;5.23;;;1.53;;
15833;SDS011;8017;50.812;4.934;2022-11-15T11:14:11;5.77;;;1.23;;
15833;SDS011;8017;50.812;4.934;2022-11-15T11:17:16;5.07;;;1.10;;
15833;SDS011;8017;50.812;4.934;2022-11-15T11:20:26;8.10;;;1.60;;
15833;SDS011;8017;50.812;4.934;2022-11-15T11:23:38;5.50;;;1.63;;
15833;SDS011;8017;50.812;4.934;2022-11-15T11:26:49;6.50;;;1.37;;
15833;SDS011;8017;50.812;4.934;2022-11-15T11:30:02;4.60;;;1.43;;
15833;SDS011;8017;50.812;4.934;2022-11-15T11:33:13;10.10;;;1.40;;
15833;SDS011;8017;50.812;4.934;2022-11-15T11:36:21;3.60;;;1.67;;
15833;SDS011;8017;50.812;4.934;2022-11-15T11:39:28;4.40;;;1.57;;
15833;SDS011;8017;50.812;4.934;2022-11-15T11:42:43;7.00;;;1.37;;
15833;SDS011;8017;50.812;4.934;2022-11-15T11:46:00;5.23;;;1.67;;
15833;SDS011;8017;50.812;4.934;2022-11-15T11:49:18;5.80;;;1.50;;
15833;SDS011;8017;50.812;4.934;2022-11-15T11:52:27;3.40;;;1.40;;
15833;SDS011;8017;50.812;4.934;2022-11-15T11:55:34;6.37;;;2.03;;
15833;SDS011;8017;50.812;4.934;2022-11-15T11:58:41;7.70;;;2.30;;
15833;SDS011;8017;50.812;4.934;2022-11-15T12:01:45;5.30;;;1.50;;
15833;SDS011;8017;50.812;4.934;2022-11-15T12:04:49;3.47;;;1.33;;
15833;SDS011;8017;50.812;4.934;2022-11-15T12:07:54;3.70;;;1.43;;
15833;SDS011;8017;50.812;4.934;2022-11-15T12:11:08;5.73;;;1.17;;
15833;SDS011;8017;50.812;4.934;2022-11-15T12:14:16;2.97;;;1.60;;
15833;SDS011;8017;50.812;4.934;2022-11-15T12:17:39;6.30;;;1.20;;
15833;SDS011;8017;50.812;4.934;2022-11-15T12:20:50;3.10;;;1.03;;
15833;SDS011;8017;50.812;4.934;2022-11-15T12:23:59;4.17;;;1.87;;
15833;SDS011;8017;50.812;4.934;2022-11-15T12:27:08;4.00;;;1.60;;
15833;SDS011;8017;50.812;4.934;2022-11-15T12:30:18;4.10;;;1.60;;
15833;SDS011;8017;50.812;4.934;2022-11-15T12:36:49;6.97;;;1.57;;
15833;SDS011;8017;50.812;4.934;2022-11-15T12:40:05;4.07;;;1.47;;
15833;SDS011;8017;50.812;4.934;2022-11-15T12:53:56;3.37;;;1.43;;
15833;SDS011;8017;50.812;4.934;2022-11-15T13:07:09;9.30;;;2.27;;
15833;SDS011;8017;50.812;4.934;2022-11-15T13:10:56;6.97;;;1.97;;
15833;SDS011;8017;50.812;4.934;2022-11-15T13:13:58;8.97;;;1.80;;
15833;SDS011;8017;50.812;4.934;2022-11-15T13:17:00;6.37;;;1.20;;
15833;SDS011;8017;50.812;4.934;2022-11-15T13:20:15;2.63;;;1.33;;
15833;SDS011;8017;50.812;4.934;2022-11-15T13:23:23;13.53;;;2.53;;
15833;SDS011;8017;50.812;4.934;2022-11-15T13:26:26;6.90;;;1.30;;
15833;SDS011;8017;50.812;4.934;2022-11-15T13:29:29;5.23;;;2.97;;
15833;SDS011;8017;50.812;4.934;2022-11-15T13:32:33;4.23;;;1.77;;
15833;SDS011;8017;50.812;4.934;2022-11-15T13:35:36;22.33;;;2.30;;
15833;SDS011;8017;50.812;4.934;2022-11-15T13:38:41;16.70;;;2.40;;
15833;SDS011;8017;50.812;4.934;2022-11-15T13:41:47;6.13;;;1.60;;
15833;SDS011;8017;50.812;4.934;2022-11-15T13:44:57;3.33;;;1.20;;
15833;SDS011;8017;50.812;4.934;2022-11-15T13:48:02;11.13;;;3.43;;
15833;SDS011;8017;50.812;4.934;2022-11-15T13:51:07;55.20;;;9.30;;
15833;SDS011;8017;50.812;4.934;2022-11-15T13:54:17;112.63;;;17.03;;
15833;SDS011;8017;50.812;4.934;2022-11-15T13:57:25;48.07;;;7.07;;
15833;SDS011;8017;50.812;4.934;2022-11-15T14:00:35;41.63;;;6.17;;
15833;SDS011;8017;50.812;4.934;2022-11-15T14:03:41;65.60;;;10.00;;
15833;SDS011;8017;50.812;4.934;2022-11-15T14:06:51;59.90;;;7.07;;
15833;SDS011;8017;50.812;4.934;2022-11-15T14:09:56;29.70;;;4.50;;
15833;SDS011;8017;50.812;4.934;2022-11-15T14:12:59;3.93;;;1.57;;
15833;SDS011;8017;50.812;4.934;2022-11-15T14:16:15;39.63;;;6.53;;
15833;SDS011;8017;50.812;4.934;2022-11-15T14:19:37;24.00;;;4.03;;
15833;SDS011;8017;50.812;4.934;2022-11-15T14:22:41;37.10;;;4.90;;
15833;SDS011;8017;50.812;4.934;2022-11-15T14:25:53;2.47;;;1.43;;
15833;SDS011;8017;50.812;4.934;2022-11-15T14:28:57;7.37;;;2.60;;
15833;SDS011;8017;50.812;4.934;2022-11-15T14:32:27;4.13;;;1.90;;
15833;SDS011;8017;50.812;4.934;2022-11-15T14:35:30;168.63;;;18.70;;
15833;SDS011;8017;50.812;4.934;2022-11-15T14:38:32;106.17;;;12.57;;
15833;SDS011;8017;50.812;4.934;2022-11-15T14:41:35;22.33;;;3.80;;
15833;SDS011;8017;50.812;4.934;2022-11-15T14:44:39;4.17;;;1.73;;
15833;SDS011;8017;50.812;4.934;2022-11-15T14:47:41;63.97;;;7.80;;
15833;SDS011;8017;50.812;4.934;2022-11-15T14:50:43;60.27;;;8.10;;
15833;SDS011;8017;50.812;4.934;2022-11-15T14:53:46;37.60;;;4.90;;
15833;SDS011;8017;50.812;4.934;2022-11-15T14:56:48;4.87;;;1.57;;
15833;SDS011;8017;50.812;4.934;2022-11-15T14:59:52;85.90;;;9.20;;
15833;SDS011;8017;50.812;4.934;2022-11-15T15:02:54;51.67;;;6.97;;
15833;SDS011;8017;50.812;4.934;2022-11-15T15:05:56;259.33;;;29.53;;
15833;SDS011;8017;50.812;4.934;2022-11-15T15:08:58;80.93;;;9.93;;
15833;SDS011;8017;50.812;4.934;2022-11-15T15:12:00;193.80;;;21.00;;
15833;SDS011;8017;50.812;4.934;2022-11-15T15:15:04;25.50;;;4.80;;
15833;SDS011;8017;50.812;4.934;2022-11-15T15:18:07;147.57;;;18.93;;
15833;SDS011;8017;50.812;4.934;2022-11-15T15:21:16;301.37;;;35.73;;
15833;SDS011;8017;50.812;4.934;2022-11-15T15:24:21;217.27;;;24.83;;
15833;SDS011;8017;50.812;4.934;2022-11-15T15:27:23;50.17;;;7.30;;
15833;SDS011;8017;50.812;4.934;2022-11-15T15:30:27;75.30;;;12.30;;
15833;SDS011;8017;50.812;4.934;2022-11-15T15:33:30;131.83;;;18.07;;
15833;SDS011;8017;50.812;4.934;2022-11-15T15:36:32;42.53;;;7.37;;
15833;SDS011;8017;50.812;4.934;2022-11-15T15:39:34;83.57;;;10.77;;
15833;SDS011;8017;50.812;4.934;2022-11-15T15:42:36;146.43;;;16.13;;
15833;SDS011;8017;50.812;4.934;2022-11-15T15:45:40;7.53;;;2.13;;
15833;SDS011;8017;50.812;4.934;2022-11-15T15:48:42;79.10;;;11.07;;
15833;SDS011;8017;50.812;4.934;2022-11-15T15:51:47;49.80;;;7.77;;
15833;SDS011;8017;50.812;4.934;2022-11-15T15:54:49;33.33;;;6.20;;
15833;SDS011;8017;50.812;4.934;2022-11-15T15:57:51;149.93;;;18.80;;
15833;SDS011;8017;50.812;4.934;2022-11-15T16:00:55;9.50;;;3.20;;
15833;SDS011;8017;50.812;4.934;2022-11-15T16:03:57;168.57;;;17.50;;
15833;SDS011;8017;50.812;4.934;2022-11-15T16:06:59;32.43;;;4.60;;
15833;SDS011;8017;50.812;4.934;2022-11-15T16:10:02;25.63;;;4.40;;
15833;SDS011;8017;50.812;4.934;2022-11-15T16:13:18;17.07;;;3.97;;
15833;SDS011;8017;50.812;4.934;2022-11-15T16:16:21;23.70;;;4.63;;
15833;SDS011;8017;50.812;4.934;2022-11-15T16:19:23;13.10;;;3.63;;
15833;SDS011;8017;50.812;4.934;2022-11-15T16:22:25;21.37;;;4.20;;
15833;SDS011;8017;50.812;4.934;2022-11-15T16:25:36;7.00;;;2.17;;
15833;SDS011;8017;50.812;4.934;2022-11-15T16:28:40;8.03;;;2.90;;
15833;SDS011;8017;50.812;4.934;2022-11-15T16:31:44;6.90;;;2.60;;
15833;SDS011;8017;50.812;4.934;2022-11-15T16:34:46;6.47;;;2.70;;
15833;SDS011;8017;50.812;4.934;2022-11-15T16:37:48;5.43;;;2.63;;
15833;SDS011;8017;50.812;4.934;2022-11-15T16:40:50;5.43;;;2.80;;
15833;SDS011;8017;50.812;4.934;2022-11-15T16:43:52;5.20;;;2.70;;
15833;SDS011;8017;50.812;4.934;2022-11-15T16:46:55;4.73;;;3.00;;
15833;SDS011;8017;50.812;4.934;2022-11-15T16:49:57;6.43;;;3.07;;
15833;SDS011;8017;50.812;4.934;2022-11-15T16:52:59;5.93;;;3.20;;
15833;SDS011;8017;50.812;4.934;2022-11-15T16:56:01;3.20;;;2.60;;
15833;SDS011;8017;50.812;4.934;2022-11-15T16:59:03;5.87;;;3.40;;
15833;SDS011;8017;50.812;4.934;2022-11-15T17:02:10;5.27;;;3.57;;
15833;SDS011;8017;50.812;4.934;2022-11-15T17:05:13;5.63;;;3.03;;
15833;SDS011;8017;50.812;4.934;2022-11-15T17:08:16;3.40;;;2.80;;
15833;SDS011;8017;50.812;4.934;2022-11-15T17:11:20;5.17;;;3.10;;
15833;SDS011;8017;50.812;4.934;2022-11-15T17:14:22;2.67;;;2.47;;
15833;SDS011;8017;50.812;4.934;2022-11-15T17:17:26;5.87;;;2.90;;
15833;SDS011;8017;50.812;4.934;2022-11-15T17:20:27;3.83;;;2.83;;
15833;SDS011;8017;50.812;4.934;2022-11-15T17:23:29;5.30;;;3.93;;
15833;SDS011;8017;50.812;4.934;2022-11-15T17:26:32;6.73;;;3.57;;
15833;SDS011;8017;50.812;4.934;2022-11-15T17:29:34;4.83;;;3.60;;
15833;SDS011;8017;50.812;4.934;2022-11-15T17:32:37;4.33;;;3.03;;
15833;SDS011;8017;50.812;4.934;2022-11-15T17:35:39;3.70;;;2.87;;
15833;SDS011;8017;50.812;4.934;2022-11-15T17:38:41;4.87;;;3.07;;
15833;SDS011;8017;50.812;4.934;2022-11-15T17:41:43;5.93;;;4.77;;
15833;SDS011;8017;50.812;4.934;2022-11-15T17:44:45;6.13;;;5.53;;
15833;SDS011;8017;50.812;4.934;2022-11-15T17:47:48;4.20;;;3.80;;
15833;SDS011;8017;50.812;4.934;2022-11-15T17:50:56;3.70;;;3.40;;
15833;SDS011;8017;50.812;4.934;2022-11-15T17:53:59;3.97;;;3.50;;
15833;SDS011;8017;50.812;4.934;2022-11-15T17:57:02;3.33;;;3.07;;
15833;SDS011;8017;50.812;4.934;2022-11-15T18:00:04;3.90;;;3.60;;
15833;SDS011;8017;50.812;4.934;2022-11-15T18:03:08;4.37;;;3.20;;
15833;SDS011;8017;50.812;4.934;2022-11-15T18:06:10;3.97;;;3.37;;
15833;SDS011;8017;50.812;4.934;2022-11-15T18:09:12;3.90;;;3.40;;
15833;SDS011;8017;50.812;4.934;2022-11-15T18:12:14;3.60;;;3.27;;
15833;SDS011;8017;50.812;4.934;2022-11-15T18:15:16;4.77;;;3.43;;
15833;SDS011;8017;50.812;4.934;2022-11-15T18:18:21;3.90;;;3.50;;
15833;SDS011;8017;50.812;4.934;2022-11-15T18:21:24;5.27;;;3.50;;
15833;SDS011;8017;50.812;4.934;2022-11-15T18:24:27;6.03;;;4.27;;
15833;SDS011;8017;50.812;4.934;2022-11-15T18:27:30;4.70;;;4.30;;
15833;SDS011;8017;50.812;4.934;2022-11-15T18:30:32;4.90;;;4.40;;
15833;SDS011;8017;50.812;4.934;2022-11-15T18:33:35;5.33;;;4.77;;
15833;SDS011;8017;50.812;4.934;2022-11-15T18:36:37;6.43;;;5.73;;
15833;SDS011;8017;50.812;4.934;2022-11-15T18:39:40;5.30;;;4.23;;
15833;SDS011;8017;50.812;4.934;2022-11-15T18:42:42;5.60;;;3.90;;
15833;SDS011;8017;50.812;4.934;2022-11-15T18:45:47;4.43;;;4.03;;
15833;SDS011;8017;50.812;4.934;2022-11-15T18:48:51;5.13;;;3.87;;
15833;SDS011;8017;50.812;4.934;2022-11-15T18:51:54;4.40;;;4.00;;
15833;SDS011;8017;50.812;4.934;2022-11-15T18:54:56;4.20;;;3.80;;
15833;SDS011;8017;50.812;4.934;2022-11-15T18:57:58;5.30;;;3.70;;
15833;SDS011;8017;50.812;4.934;2022-11-15T19:01:00;5.03;;;3.73;;